createdAt,value
2023-04-26T00:01:40.465Z,100.00
2023-04-26T00:04:43.545Z,100.00
2023-04-26T00:07:46.709Z,100.00
2023-04-26T00:10:49.688Z,100.00
2023-04-26T00:13:52.282Z,100.00
2023-04-26T00:16:55.234Z,100.00
2023-04-26T00:19:58.194Z,100.00
2023-04-26T00:23:00.996Z,100.00
2023-04-26T00:26:04.067Z,100.00
2023-04-26T00:29:06.748Z,100.00
2023-04-26T00:32:09.344Z,100.00
2023-04-26T00:35:12.440Z,100.00
2023-04-26T00:38:14.953Z,100.00
2023-04-26T00:41:18.013Z,100.00
2023-04-26T00:44:20.603Z,100.00
2023-04-26T00:47:25.317Z,100.00
2023-04-26T00:50:29.058Z,100.00
2023-04-26T00:53:32.810Z,100.00
2023-04-26T00:56:37.064Z,100.00
2023-04-26T00:59:40.101Z,100.00
2023-04-26T01:02:43.128Z,100.00
2023-04-26T01:05:46.173Z,100.00
2023-04-26T01:08:52.222Z,100.00
2023-04-26T01:11:58.420Z,100.00
2023-04-26T01:15:01.458Z,100.00
2023-04-26T01:18:04.310Z,100.00
2023-04-26T01:21:07.163Z,100.00
2023-04-26T01:24:11.271Z,100.00
2023-04-26T01:27:14.255Z,100.00
2023-04-26T01:30:17.131Z,100.00
2023-04-26T01:33:19.966Z,100.00
2023-04-26T01:36:22.945Z,100.00
2023-04-26T01:39:25.435Z,100.00
2023-04-26T01:42:28.162Z,100.00
2023-04-26T01:45:31.117Z,100.00
2023-04-26T01:48:53.011Z,100.00
2023-04-26T01:51:56.294Z,100.00
2023-04-26T01:55:00.197Z,100.00
2023-04-26T01:58:03.008Z,100.00
2023-04-26T02:01:10.025Z,100.00
2023-04-26T02:04:13.087Z,100.00
2023-04-26T02:07:16.300Z,100.00
2023-04-26T02:10:21.514Z,100.00
2023-04-26T02:13:24.830Z,100.00
2023-04-26T02:16:27.312Z,100.00
2023-04-26T02:19:30.266Z,100.00
2023-04-26T02:22:33.032Z,100.00
2023-04-26T02:25:36.346Z,100.00
2023-04-26T02:28:39.257Z,100.00
2023-04-26T02:31:42.411Z,100.00
2023-04-26T02:34:45.134Z,100.00
2023-04-26T02:37:49.328Z,100.00
2023-04-26T02:40:59.946Z,100.00
2023-04-26T02:44:02.823Z,100.00
2023-04-26T02:47:05.422Z,100.00
2023-04-26T02:50:09.410Z,100.00
2023-04-26T02:53:13.282Z,100.00
2023-04-26T02:56:16.625Z,100.00
2023-04-26T02:59:19.360Z,100.00
2023-04-26T03:02:22.472Z,100.00
2023-04-26T03:05:25.727Z,100.00
2023-04-26T03:08:29.233Z,100.00
2023-04-26T03:11:32.049Z,100.00
2023-04-26T03:14:35.558Z,100.00
2023-04-26T03:17:38.273Z,100.00
2023-04-26T03:20:42.521Z,100.00
2023-04-26T03:23:46.259Z,100.00
2023-04-26T03:26:51.242Z,100.00
2023-04-26T03:29:54.506Z,100.00
2023-04-26T03:32:58.270Z,100.00
2023-04-26T03:36:01.107Z,100.00
2023-04-26T03:39:05.799Z,100.00
2023-04-26T03:42:09.274Z,100.00
2023-04-26T03:45:12.345Z,100.00
2023-04-26T03:48:14.977Z,100.00
2023-04-26T03:51:17.847Z,100.00
2023-04-26T03:54:20.302Z,100.00
2023-04-26T03:57:23.391Z,100.00
2023-04-26T04:00:26.371Z,100.00
2023-04-26T04:03:30.694Z,100.00
2023-04-26T04:06:33.300Z,100.00
2023-04-26T04:09:37.054Z,100.00
2023-04-26T04:12:39.553Z,100.00
2023-04-26T04:15:42.557Z,100.00
2023-04-26T04:18:45.096Z,100.00
2023-04-26T04:21:47.972Z,100.00
2023-04-26T04:24:51.261Z,100.00
2023-04-26T04:27:54.192Z,100.00
2023-04-26T04:30:57.224Z,100.00
2023-04-26T04:34:00.361Z,100.00
2023-04-26T04:37:04.322Z,100.00
2023-04-26T04:40:11.696Z,100.00
2023-04-26T04:43:16.890Z,100.00
2023-04-26T04:46:20.103Z,100.00
2023-04-26T04:49:24.714Z,100.00
2023-04-26T04:52:27.704Z,100.00
2023-04-26T04:55:30.484Z,100.00
2023-04-26T04:58:33.834Z,100.00
2023-04-26T05:01:38.515Z,100.00
2023-04-26T05:04:45.702Z,100.00
2023-04-26T05:07:48.662Z,100.00
2023-04-26T05:10:52.130Z,100.00
2023-04-26T05:13:54.947Z,100.00
2023-04-26T05:16:57.820Z,100.00
2023-04-26T05:20:04.171Z,100.00
2023-04-26T05:23:07.395Z,100.00
2023-04-26T05:26:19.272Z,100.00
2023-04-26T05:29:42.319Z,100.00
2023-04-26T05:32:59.014Z,100.00
2023-04-26T05:36:20.299Z,100.00
2023-04-26T05:39:23.696Z,100.00
2023-04-26T05:42:27.358Z,100.00
2023-04-26T05:45:30.009Z,100.00
2023-04-26T05:48:32.745Z,100.00
2023-04-26T05:51:35.462Z,100.00
2023-04-26T05:54:37.998Z,100.00
2023-04-26T05:57:41.041Z,100.00
2023-04-26T06:00:45.051Z,100.00
2023-04-26T06:03:48.039Z,100.00
2023-04-26T06:06:53.818Z,100.00
2023-04-26T06:09:58.188Z,99.56
2023-04-26T06:13:01.074Z,98.72
2023-04-26T06:16:06.197Z,99.04
2023-04-26T06:19:09.116Z,100.00
2023-04-26T06:22:11.794Z,98.48
2023-04-26T06:25:15.421Z,97.86
2023-04-26T06:28:18.266Z,95.27
2023-04-26T06:31:22.960Z,92.95
2023-04-26T06:34:25.769Z,92.45
2023-04-26T06:37:28.468Z,93.61
2023-04-26T06:40:35.148Z,85.93
2023-04-26T06:43:37.907Z,86.09
2023-04-26T06:46:55.520Z,78.44
2023-04-26T06:49:58.200Z,83.17
2023-04-26T06:53:00.823Z,77.80
2023-04-26T06:56:03.664Z,74.07
2023-04-26T06:59:07.816Z,79.19
2023-04-26T07:02:10.851Z,75.59
2023-04-26T07:05:15.310Z,78.41
2023-04-26T07:08:18.332Z,77.38
2023-04-26T07:11:22.395Z,75.74
2023-04-26T07:14:26.664Z,79.84
2023-04-26T07:17:29.272Z,76.29
2023-04-26T07:20:32.512Z,76.99
2023-04-26T07:23:35.551Z,74.41
2023-04-26T07:26:38.394Z,78.14
2023-04-26T07:29:40.996Z,71.61
2023-04-26T07:32:43.669Z,70.41
2023-04-26T07:35:54.874Z,65.23
2023-04-26T07:38:57.673Z,66.96
2023-04-26T07:42:00.415Z,73.45
2023-04-26T07:45:03.816Z,70.50
2023-04-26T07:48:06.674Z,71.12
2023-04-26T07:51:10.939Z,65.65
2023-04-26T07:54:13.520Z,66.47
2023-04-26T07:57:16.611Z,64.88
2023-04-26T08:00:19.951Z,65.80
2023-04-26T08:03:22.872Z,68.78
2023-04-26T08:06:26.119Z,64.66
2023-04-26T08:09:30.770Z,66.37
2023-04-26T08:12:35.492Z,68.10
2023-04-26T08:15:38.058Z,68.46
2023-04-26T08:18:40.722Z,60.40
2023-04-26T08:21:43.724Z,59.63
2023-04-26T08:24:49.963Z,57.78
2023-04-26T08:27:52.765Z,64.28
2023-04-26T08:30:56.884Z,61.97
2023-04-26T08:33:59.612Z,53.60
2023-04-26T08:37:02.082Z,59.42
2023-04-26T08:40:09.701Z,57.16
2023-04-26T08:43:15.289Z,50.99
2023-04-26T08:46:20.920Z,50.12
2023-04-26T08:49:42.595Z,48.90
2023-04-26T08:52:48.850Z,47.97
2023-04-26T08:55:51.598Z,47.21
2023-04-26T08:58:54.594Z,43.25
2023-04-26T09:01:58.201Z,44.26
2023-04-26T09:05:01.221Z,52.36
2023-04-26T09:08:07.336Z,54.42
2023-04-26T09:11:10.155Z,44.19
2023-04-26T09:14:12.568Z,41.71
2023-04-26T09:17:32.747Z,42.54
2023-04-26T09:20:35.411Z,42.60
2023-04-26T09:23:57.978Z,40.56
2023-04-26T09:27:03.787Z,46.23
2023-04-26T09:30:09.956Z,48.34
2023-04-26T09:33:12.645Z,40.45
2023-04-26T09:36:15.761Z,44.19
2023-04-26T09:39:34.324Z,45.13
2023-04-26T09:42:36.935Z,43.26
2023-04-26T09:45:50.608Z,37.09
2023-04-26T09:49:03.718Z,38.55
2023-04-26T09:52:06.920Z,37.57
2023-04-26T09:55:14.379Z,37.40
2023-04-26T09:58:23.189Z,36.89
2023-04-26T10:01:28.717Z,38.08
2023-04-26T10:04:32.172Z,40.86
2023-04-26T10:07:35.119Z,38.37
2023-04-26T10:10:38.545Z,40.53
2023-04-26T10:13:43.203Z,41.05
2023-04-26T10:16:47.172Z,41.55
2023-04-26T10:19:54.910Z,45.03
2023-04-26T10:23:01.584Z,41.85
2023-04-26T10:26:04.642Z,39.99
2023-04-26T10:29:08.198Z,40.06
2023-04-26T10:32:16.997Z,42.46
2023-04-26T10:35:20.179Z,38.22
2023-04-26T10:38:22.783Z,38.38
2023-04-26T10:41:34.051Z,39.75
2023-04-26T10:44:42.570Z,41.33
2023-04-26T10:47:45.054Z,42.74
2023-04-26T10:51:05.690Z,44.49
2023-04-26T10:54:08.250Z,40.76
2023-04-26T10:57:11.086Z,46.98
2023-04-26T11:00:17.278Z,45.35
2023-04-26T11:03:23.427Z,44.48
2023-04-26T11:06:26.934Z,45.36
2023-04-26T11:09:40.951Z,44.05
2023-04-26T11:13:01.049Z,46.31
2023-04-26T11:16:06.475Z,44.64
2023-04-26T11:19:09.979Z,45.20
2023-04-26T11:22:12.834Z,46.63
2023-04-26T11:25:15.448Z,49.11
2023-04-26T11:28:19.644Z,45.21
2023-04-26T11:31:22.280Z,44.03
2023-04-26T11:34:35.395Z,45.71
2023-04-26T11:37:37.915Z,44.88
2023-04-26T11:40:41.815Z,44.15
2023-04-26T11:43:44.306Z,45.32
2023-04-26T11:46:48.937Z,43.45
2023-04-26T11:49:52.107Z,44.47
2023-04-26T11:53:01.103Z,46.63
2023-04-26T11:56:05.688Z,44.61
2023-04-26T11:59:08.284Z,44.81
2023-04-26T12:02:11.030Z,45.27
2023-04-26T12:05:32.838Z,47.84
2023-04-26T12:08:35.714Z,49.55
2023-04-26T12:11:38.930Z,49.65
2023-04-26T12:14:41.541Z,49.22
2023-04-26T12:17:59.268Z,44.27
2023-04-26T12:21:02.439Z,42.75
2023-04-26T12:24:05.126Z,47.05
2023-04-26T12:27:08.006Z,49.41
2023-04-26T12:30:11.309Z,50.57
2023-04-26T12:33:17.429Z,46.45
2023-04-26T12:36:21.168Z,46.82
2023-04-26T12:39:23.749Z,50.19
2023-04-26T12:42:26.786Z,52.96
2023-04-26T12:45:29.447Z,51.08
2023-04-26T12:48:31.992Z,50.80
2023-04-26T12:51:34.591Z,49.22
2023-04-26T12:54:37.546Z,49.60
2023-04-26T12:57:42.003Z,50.94
2023-04-26T13:00:44.704Z,50.36
2023-04-26T13:03:47.584Z,51.58
2023-04-26T13:06:50.344Z,53.13
2023-04-26T13:09:53.174Z,54.38
2023-04-26T13:12:55.976Z,52.66
2023-04-26T13:15:59.280Z,52.50
2023-04-26T13:19:02.178Z,49.46
2023-04-26T13:22:07.657Z,50.61
2023-04-26T13:25:11.168Z,48.84
2023-04-26T13:28:15.099Z,50.64
2023-04-26T13:31:18.220Z,50.26
2023-04-26T13:34:21.188Z,50.52
2023-04-26T13:37:23.953Z,54.38
2023-04-26T13:40:30.905Z,51.61
2023-04-26T13:43:33.587Z,52.61
2023-04-26T13:46:36.470Z,52.22
2023-04-26T13:49:41.854Z,56.25
2023-04-26T13:52:45.009Z,54.51
2023-04-26T13:55:48.243Z,54.58
2023-04-26T13:58:54.973Z,57.22
2023-04-26T14:01:59.150Z,58.36
2023-04-26T14:05:02.573Z,54.67
2023-04-26T14:08:06.041Z,57.30
2023-04-26T14:11:09.084Z,58.51
2023-04-26T14:14:11.753Z,61.17
2023-04-26T14:17:14.464Z,62.62
2023-04-26T14:20:17.160Z,63.40
2023-04-26T14:23:19.717Z,61.61
2023-04-26T14:26:25.999Z,63.08
2023-04-26T14:29:29.109Z,64.40
2023-04-26T14:32:31.861Z,63.21
2023-04-26T14:35:34.538Z,64.40
2023-04-26T14:38:37.684Z,64.09
2023-04-26T14:41:40.266Z,64.81
2023-04-26T14:44:43.102Z,67.02
2023-04-26T14:47:45.791Z,67.22
2023-04-26T14:50:48.684Z,66.67
2023-04-26T14:53:51.220Z,67.29
2023-04-26T14:56:54.080Z,69.38
2023-04-26T15:00:06.897Z,69.92
2023-04-26T15:03:09.780Z,70.70
2023-04-26T15:06:12.471Z,70.52
2023-04-26T15:09:15.326Z,70.35
2023-04-26T15:12:17.973Z,68.52
2023-04-26T15:15:20.520Z,68.80
2023-04-26T15:18:23.112Z,68.40
2023-04-26T15:21:25.807Z,68.62
2023-04-26T15:24:28.525Z,68.79
2023-04-26T15:27:31.233Z,68.75
2023-04-26T15:30:34.358Z,70.59
2023-04-26T15:33:37.049Z,70.12
2023-04-26T15:36:39.887Z,70.28
2023-04-26T15:39:42.471Z,68.67
2023-04-26T15:42:45.306Z,68.11
2023-04-26T15:45:49.108Z,68.53
2023-04-26T15:48:51.772Z,72.67
2023-04-26T15:51:54.762Z,72.44
2023-04-26T15:54:57.455Z,71.21
2023-04-26T15:58:00.308Z,71.80
2023-04-26T16:01:03.726Z,72.30
2023-04-26T16:04:06.432Z,72.19
2023-04-26T16:07:09.191Z,72.59
2023-04-26T16:10:12.212Z,68.85
2023-04-26T16:13:16.039Z,72.37
2023-04-26T16:16:21.405Z,74.14
2023-04-26T16:19:26.724Z,75.64
2023-04-26T16:22:32.463Z,76.08
2023-04-26T16:25:36.090Z,76.81
2023-04-26T16:28:39.293Z,75.88
2023-04-26T16:31:42.320Z,75.83
2023-04-26T16:34:44.764Z,74.46
2023-04-26T16:37:47.619Z,76.71
2023-04-26T16:40:58.067Z,76.64
2023-04-26T16:44:01.038Z,74.69
2023-04-26T16:47:04.043Z,73.35
2023-04-26T16:50:07.128Z,71.99
2023-04-26T16:53:10.531Z,72.68
2023-04-26T16:56:13.056Z,73.66
2023-04-26T17:02:53.072Z,72.95
2023-04-26T17:05:55.983Z,71.13
2023-04-26T17:08:58.586Z,71.63
2023-04-26T17:12:02.685Z,70.47
2023-04-26T17:15:07.262Z,73.20
2023-04-26T17:18:10.123Z,72.24
2023-04-26T17:21:12.988Z,71.94
2023-04-26T17:24:16.640Z,74.04
2023-04-26T17:27:19.217Z,75.85
2023-04-26T17:30:22.429Z,76.64
2023-04-26T17:33:26.127Z,77.16
2023-04-26T17:36:28.991Z,79.44
2023-04-26T17:39:31.870Z,78.37
2023-04-26T17:42:34.777Z,77.69
2023-04-26T17:45:37.472Z,77.74
2023-04-26T17:48:40.275Z,77.58
2023-04-26T17:51:42.885Z,78.88
2023-04-26T17:54:45.764Z,81.32
2023-04-26T17:57:48.771Z,79.51
2023-04-26T18:00:52.200Z,81.34
2023-04-26T18:03:55.447Z,84.57
2023-04-26T18:06:57.991Z,85.61
2023-04-26T18:10:00.946Z,87.61
2023-04-26T18:13:03.500Z,82.61
2023-04-26T18:16:06.752Z,75.60
2023-04-26T18:19:09.826Z,78.16
2023-04-26T18:22:12.719Z,81.60
2023-04-26T18:25:15.559Z,78.33
2023-04-26T18:28:18.597Z,79.55
2023-04-26T18:31:22.808Z,80.68
2023-04-26T18:34:25.549Z,82.94
2023-04-26T18:37:28.489Z,74.91
2023-04-26T18:40:31.564Z,76.41
2023-04-26T18:43:34.962Z,74.89
2023-04-26T18:46:37.860Z,72.88
2023-04-26T18:49:40.684Z,74.80
2023-04-26T18:52:45.201Z,75.34
2023-04-26T18:55:48.173Z,74.37
2023-04-26T18:58:50.746Z,74.92
2023-04-26T19:01:53.924Z,74.96
2023-04-26T19:04:57.963Z,75.82
2023-04-26T19:08:00.789Z,70.84
2023-04-26T19:11:03.830Z,72.47
2023-04-26T19:14:06.384Z,73.90
2023-04-26T19:17:09.040Z,78.80
2023-04-26T19:20:14.037Z,80.56
2023-04-26T19:23:16.851Z,78.58
2023-04-26T19:26:19.772Z,77.73
2023-04-26T19:29:22.822Z,78.07
2023-04-26T19:32:25.571Z,77.89
2023-04-26T19:35:28.746Z,74.85
2023-04-26T19:38:31.579Z,74.60
2023-04-26T19:41:34.685Z,77.55
2023-04-26T19:44:39.331Z,76.24
2023-04-26T19:47:42.788Z,77.91
2023-04-26T19:50:46.645Z,79.33
2023-04-26T19:53:49.609Z,80.02
2023-04-26T19:56:52.349Z,83.67
2023-04-26T19:59:54.956Z,82.86
2023-04-26T20:02:59.035Z,81.23
2023-04-26T20:06:02.261Z,80.99
2023-04-26T20:09:06.986Z,81.99
2023-04-26T20:12:10.000Z,81.17
2023-04-26T20:15:14.865Z,81.40
2023-04-26T20:18:17.802Z,79.70
2023-04-26T20:21:20.590Z,77.51
2023-04-26T20:24:24.646Z,75.67
2023-04-26T20:27:27.385Z,76.27
2023-04-26T20:30:33.894Z,75.64
2023-04-26T20:33:36.756Z,74.63
2023-04-26T20:36:40.752Z,75.08
2023-04-26T20:39:43.467Z,74.09
2023-04-26T20:42:47.039Z,71.09
2023-04-26T20:45:51.463Z,74.87
2023-04-26T20:48:54.956Z,73.41
2023-04-26T20:51:58.253Z,75.18
2023-04-26T20:55:01.096Z,76.07
2023-04-26T20:58:03.782Z,74.82
2023-04-26T21:01:07.409Z,74.43
2023-04-26T21:04:11.218Z,75.23
2023-04-26T21:07:14.201Z,74.92
2023-04-26T21:10:17.914Z,75.33
2023-04-26T21:13:20.650Z,76.80
2023-04-26T21:16:23.152Z,75.98
2023-04-26T21:19:26.225Z,75.03
2023-04-26T21:22:28.853Z,75.81
2023-04-26T21:25:31.666Z,74.51
2023-04-26T21:28:34.475Z,76.23
2023-04-26T21:31:37.792Z,74.17
2023-04-26T21:34:40.464Z,73.80
2023-04-26T21:37:43.195Z,71.93
2023-04-26T21:40:45.709Z,70.76
2023-04-26T21:43:48.492Z,70.59
2023-04-26T21:46:50.953Z,69.44
2023-04-26T21:49:54.269Z,69.97
2023-04-26T21:52:56.916Z,73.50
2023-04-26T21:56:00.022Z,72.25
2023-04-26T21:59:02.656Z,71.64
2023-04-26T22:02:05.258Z,71.42
2023-04-26T22:05:08.400Z,69.46
2023-04-26T22:08:11.394Z,71.21
2023-04-26T22:11:13.948Z,73.36
2023-04-26T22:14:16.967Z,70.34
2023-04-26T22:17:19.576Z,70.42
2023-04-26T22:20:22.840Z,69.31
2023-04-26T22:23:25.886Z,72.70
2023-04-26T22:26:28.569Z,74.55
2023-04-26T22:29:31.244Z,76.99
2023-04-26T22:32:34.073Z,77.59
2023-04-26T22:35:36.802Z,73.20
2023-04-26T22:38:39.976Z,77.91
2023-04-26T22:41:42.434Z,75.72
2023-04-26T22:44:46.815Z,75.84
2023-04-26T22:47:49.410Z,75.77
2023-04-26T22:50:52.335Z,76.35
2023-04-26T22:53:55.389Z,78.90
2023-04-26T22:56:58.099Z,77.27
2023-04-26T23:00:00.899Z,75.20
2023-04-26T23:03:03.798Z,72.00
2023-04-26T23:06:07.229Z,71.47
2023-04-26T23:09:10.583Z,69.83
2023-04-26T23:12:23.688Z,70.12
2023-04-26T23:15:27.190Z,69.83
2023-04-26T23:18:30.107Z,69.64
2023-04-26T23:21:32.873Z,70.53
2023-04-26T23:24:35.456Z,71.76
2023-04-26T23:27:38.687Z,71.60
2023-04-26T23:30:41.465Z,71.12
2023-04-26T23:33:44.478Z,71.50
2023-04-26T23:36:46.946Z,71.18
2023-04-26T23:39:50.030Z,71.82
2023-04-26T23:42:52.488Z,71.98
2023-04-26T23:45:56.161Z,72.62
2023-04-26T23:48:58.757Z,72.37
2023-04-26T23:52:01.866Z,72.98
2023-04-26T23:55:04.863Z,72.18
2023-04-26T23:58:07.790Z,72.31
